createdAt,value
2022-08-04T00:00:16.072Z,95.90
2022-08-04T00:03:02.024Z,96.20
2022-08-04T00:06:28.989Z,96.40
2022-08-04T00:09:01.251Z,96.50
2022-08-04T00:11:31.480Z,96.70
2022-08-04T00:14:08.768Z,96.40
2022-08-04T00:16:38.618Z,96.80
2022-08-04T00:19:47.380Z,97.30
2022-08-04T00:22:18.248Z,97.30
2022-08-04T00:24:46.243Z,97.80
2022-08-04T00:27:13.904Z,97.50
2022-08-04T00:29:41.577Z,96.80
2022-08-04T00:32:09.223Z,96.90
2022-08-04T00:34:37.861Z,96.90
2022-08-04T00:37:08.019Z,96.90
2022-08-04T00:39:35.244Z,97.00
2022-08-04T00:42:27.332Z,97.10
2022-08-04T00:45:20.891Z,97.10
2022-08-04T00:48:12.538Z,97.80
2022-08-04T00:50:56.985Z,98.00
2022-08-04T00:53:31.234Z,98.00
2022-08-04T00:56:23.437Z,98.60
2022-08-04T00:58:58.105Z,98.60
2022-08-04T01:01:48.980Z,99.00
2022-08-04T01:04:45.468Z,99.30
2022-08-04T01:07:22.487Z,99.30
2022-08-04T01:10:17.424Z,99.60
2022-08-04T01:13:03.003Z,99.50
2022-08-04T01:15:59.776Z,99.70
2022-08-04T01:18:46.602Z,99.70
2022-08-04T01:21:35.416Z,99.90
2022-08-04T01:24:39.956Z,99.90
2022-08-04T01:27:33.183Z,99.90
2022-08-04T01:30:03.015Z,99.90
2022-08-04T01:32:38.488Z,99.90
2022-08-04T01:35:21.537Z,99.90
2022-08-04T01:37:56.056Z,99.90
2022-08-04T01:40:26.459Z,99.90
2022-08-04T01:42:54.564Z,99.90
2022-08-04T01:45:24.978Z,99.90
2022-08-04T01:47:54.325Z,99.90
2022-08-04T01:50:24.863Z,99.90
2022-08-04T01:52:54.848Z,99.90
2022-08-04T01:55:22.576Z,99.90
2022-08-04T01:57:51.640Z,99.90
2022-08-04T02:00:27.416Z,99.90
2022-08-04T02:02:56.358Z,99.90
2022-08-04T02:05:26.123Z,99.90
2022-08-04T02:08:22.694Z,99.90
2022-08-04T02:11:16.612Z,99.90
2022-08-04T02:13:54.506Z,99.90
2022-08-04T02:16:52.466Z,99.90
2022-08-04T02:19:47.304Z,99.90
2022-08-04T02:22:18.889Z,99.90
2022-08-04T02:24:49.391Z,99.90
2022-08-04T02:27:21.899Z,99.90
2022-08-04T02:29:57.854Z,99.90
2022-08-04T02:32:33.435Z,99.90
2022-08-04T02:35:14.678Z,99.90
2022-08-04T02:38:13.575Z,99.90
2022-08-04T02:40:42.515Z,99.90
2022-08-04T02:43:11.113Z,99.90
2022-08-04T02:45:43.164Z,99.90
2022-08-04T02:48:31.238Z,99.90
2022-08-04T02:51:00.522Z,99.90
2022-08-04T02:53:37.005Z,99.90
2022-08-04T02:56:07.222Z,99.90
2022-08-04T09:52:58.426Z,95.90
2022-08-04T09:55:34.812Z,95.50
2022-08-04T09:58:37.261Z,95.50
2022-08-04T10:01:09.133Z,95.30
2022-08-04T10:03:41.172Z,94.90
2022-08-04T10:06:26.374Z,94.80
2022-08-04T10:09:17.943Z,94.10
2022-08-04T10:11:59.707Z,94.20
2022-08-04T10:14:33.104Z,94.20
2022-08-04T10:17:25.053Z,94.00
2022-08-04T10:20:14.357Z,94.30
2022-08-04T10:23:19.175Z,94.50
2022-08-04T10:26:23.933Z,93.50
2022-08-04T10:28:56.515Z,93.50
2022-08-04T10:31:28.851Z,92.70
2022-08-04T10:34:06.027Z,93.00
2022-08-04T10:36:44.663Z,92.40
2022-08-04T10:39:41.856Z,92.40
2022-08-04T10:42:11.586Z,92.20
2022-08-04T10:45:01.679Z,92.20
2022-08-04T10:47:38.156Z,92.40
2022-08-04T10:50:09.161Z,92.50
2022-08-04T10:52:46.377Z,92.10
2022-08-04T10:55:18.766Z,92.30
2022-08-04T10:58:06.218Z,92.50
2022-08-04T11:00:39.002Z,92.10
2022-08-04T11:03:34.924Z,92.40
2022-08-04T11:06:03.654Z,92.10
2022-08-04T11:08:41.842Z,92.70
2022-08-04T11:11:29.808Z,93.00
2022-08-04T11:14:11.867Z,92.70
2022-08-04T11:17:05.734Z,92.80
2022-08-04T11:19:54.506Z,93.20
2022-08-04T11:22:28.811Z,93.00
2022-08-04T11:25:19.370Z,92.40
2022-08-04T11:28:11.260Z,92.40
2022-08-04T11:30:53.857Z,92.50
2022-08-04T11:33:29.752Z,92.10
2022-08-04T11:36:10.568Z,92.10
2022-08-04T11:39:02.064Z,92.60
2022-08-04T11:41:45.609Z,92.60
2022-08-04T11:44:23.947Z,92.50
2022-08-04T11:46:56.081Z,92.30
2022-08-04T11:49:56.485Z,92.30
2022-08-04T11:52:23.932Z,91.40
2022-08-04T11:54:52.785Z,91.70
2022-08-04T11:57:35.126Z,91.50
2022-08-04T12:00:12.546Z,91.70
2022-08-04T12:03:09.707Z,90.90
2022-08-04T12:05:54.978Z,90.90
2022-08-04T12:08:45.640Z,90.60
2022-08-04T12:11:17.056Z,89.90
2022-08-04T12:14:03.846Z,88.80
2022-08-04T12:16:43.899Z,89.90
2022-08-04T12:19:20.370Z,90.00
2022-08-04T12:21:56.760Z,90.40
2022-08-04T12:24:31.160Z,90.70
2022-08-04T12:27:05.018Z,90.30
2022-08-04T12:29:34.763Z,90.00
2022-08-04T12:32:11.847Z,90.40
2022-08-04T12:34:43.604Z,90.60
2022-08-04T12:37:21.980Z,87.60
2022-08-04T12:40:29.327Z,87.70
2022-08-04T12:42:56.111Z,88.00
2022-08-04T12:45:28.916Z,87.00
2022-08-04T12:47:58.917Z,88.30
2022-08-04T12:50:26.611Z,87.50
2022-08-04T12:53:04.556Z,86.40
2022-08-04T12:55:35.187Z,87.80
2022-08-04T12:58:11.872Z,86.20
2022-08-04T13:00:41.579Z,87.20
2022-08-04T13:03:14.174Z,86.20
2022-08-04T13:05:43.002Z,86.70
2022-08-04T13:08:11.858Z,84.80
2022-08-04T13:10:45.690Z,84.30
2022-08-04T13:13:21.734Z,85.70
2022-08-04T13:16:05.691Z,86.00
2022-08-04T13:18:42.809Z,85.80
2022-08-04T13:21:23.036Z,85.40
2022-08-04T13:24:21.215Z,84.90
2022-08-04T13:27:03.631Z,83.40
2022-08-04T13:29:59.338Z,83.00
2022-08-04T13:32:29.906Z,82.60
2022-08-04T13:34:59.988Z,82.10
2022-08-04T13:37:34.923Z,82.10
2022-08-04T13:40:06.322Z,82.00
2022-08-04T13:42:36.390Z,80.40
2022-08-04T13:45:06.243Z,81.30
2022-08-04T13:47:38.188Z,79.30
2022-08-04T13:50:27.149Z,81.60
2022-08-04T13:52:56.833Z,81.80
2022-08-04T13:55:25.445Z,81.00
2022-08-04T13:58:17.828Z,80.90
2022-08-04T14:01:02.925Z,82.30
2022-08-04T14:03:54.220Z,80.90
2022-08-04T14:06:25.366Z,81.30
2022-08-04T14:08:57.397Z,82.00
2022-08-04T14:12:10.642Z,81.70
2022-08-04T14:14:28.656Z,81.20
2022-08-04T14:16:58.721Z,82.40
2022-08-04T14:19:30.914Z,82.00
2022-08-04T14:22:03.804Z,82.20
2022-08-04T14:24:30.949Z,82.60
2022-08-04T14:27:01.321Z,81.80
2022-08-04T14:29:38.116Z,82.00
2022-08-04T14:32:13.824Z,82.70
2022-08-04T14:34:44.843Z,83.00
2022-08-04T14:37:20.646Z,83.10
2022-08-04T14:40:08.291Z,83.10
2022-08-04T14:42:55.774Z,83.30
2022-08-04T14:45:38.543Z,83.60
2022-08-04T14:48:11.579Z,84.30
2022-08-04T14:50:41.547Z,84.10
2022-08-04T14:53:14.027Z,83.80
2022-08-04T14:55:49.949Z,84.20
2022-08-04T14:58:34.399Z,83.80
2022-08-04T15:01:12.050Z,82.50
2022-08-04T15:03:48.236Z,83.20
2022-08-04T15:06:22.728Z,83.20
2022-08-04T15:08:51.365Z,84.00
2022-08-04T15:11:23.346Z,83.80
2022-08-04T15:13:55.712Z,82.90
2022-08-04T15:16:24.508Z,82.90
2022-08-04T15:18:54.849Z,83.40
2022-08-04T15:21:28.150Z,83.10
2022-08-04T15:23:59.274Z,82.40
2022-08-04T15:26:32.551Z,83.10
2022-08-04T15:29:59.747Z,83.70
2022-08-04T15:32:34.684Z,83.50
2022-08-04T15:35:09.904Z,84.00
2022-08-04T15:37:40.144Z,84.20
2022-08-04T15:40:33.645Z,84.40
2022-08-04T15:43:28.825Z,84.90
2022-08-04T15:46:44.280Z,85.40
2022-08-04T15:48:51.974Z,85.40
2022-08-04T15:51:31.947Z,85.50
2022-08-04T15:54:02.893Z,85.50
2022-08-04T15:56:31.266Z,84.90
2022-08-04T15:58:58.878Z,85.70
2022-08-04T16:01:27.766Z,85.30
2022-08-04T16:03:59.672Z,85.90
2022-08-04T16:06:29.591Z,86.60
2022-08-04T16:08:59.714Z,86.90
2022-08-04T16:11:30.932Z,87.00
2022-08-04T16:14:01.615Z,87.10
2022-08-04T16:16:42.207Z,87.40
2022-08-04T16:19:35.631Z,87.40
2022-08-04T16:22:04.440Z,87.00
2022-08-04T16:24:41.784Z,87.20
2022-08-04T16:27:11.968Z,87.20
2022-08-04T16:29:41.531Z,86.90
2022-08-04T16:32:11.837Z,86.80
2022-08-04T16:34:49.647Z,86.50
2022-08-04T16:37:32.396Z,86.60
2022-08-04T16:40:39.523Z,87.20
2022-08-04T16:43:20.907Z,86.70
2022-08-04T16:45:55.782Z,86.90
2022-08-04T16:48:34.550Z,87.30
2022-08-04T16:51:14.498Z,86.60
2022-08-04T16:54:03.742Z,86.20
2022-08-04T16:56:34.581Z,86.40
2022-08-04T16:59:08.382Z,86.10
2022-08-04T17:01:36.521Z,85.30
2022-08-04T17:04:05.374Z,85.00
2022-08-04T17:06:37.670Z,85.00
2022-08-04T17:09:09.275Z,85.60
2022-08-04T17:11:36.438Z,85.60
2022-08-04T17:14:06.170Z,85.20
2022-08-04T17:16:36.085Z,85.20
2022-08-04T17:19:03.693Z,85.00
2022-08-04T17:21:33.995Z,85.30
2022-08-04T17:24:16.490Z,85.70
2022-08-04T17:26:53.989Z,85.80
2022-08-04T17:29:44.622Z,85.70
2022-08-04T17:32:16.906Z,85.20
2022-08-04T17:34:59.713Z,85.70
2022-08-04T17:37:39.563Z,85.10
2022-08-04T17:40:11.567Z,85.00
2022-08-04T17:42:41.676Z,85.20
2022-08-04T17:48:09.308Z,85.10
2022-08-04T17:50:43.519Z,85.60
2022-08-04T17:53:13.092Z,85.70
2022-08-04T17:58:35.911Z,85.70
2022-08-04T18:01:23.530Z,86.00
2022-08-04T18:03:53.722Z,86.10
2022-08-04T18:06:23.309Z,86.40
2022-08-04T18:08:58.887Z,86.70
2022-08-04T18:11:29.499Z,86.80
2022-08-04T18:14:10.432Z,87.20
2022-08-04T18:16:46.840Z,87.20
2022-08-04T18:19:18.873Z,86.90
2022-08-04T18:22:00.576Z,86.80
2022-08-04T18:24:35.503Z,86.70
2022-08-04T18:27:19.022Z,87.00
2022-08-04T18:30:14.961Z,87.40
2022-08-04T18:32:34.249Z,87.60
2022-08-04T18:35:05.089Z,88.30
2022-08-04T18:38:05.398Z,88.60
2022-08-04T18:40:29.784Z,89.10
2022-08-04T18:43:00.580Z,89.40
2022-08-04T18:45:34.435Z,89.40
2022-08-04T18:48:14.061Z,89.90
2022-08-04T18:51:09.179Z,90.00
2022-08-04T18:53:34.759Z,90.10
2022-08-04T18:56:06.046Z,90.00
2022-08-04T18:58:42.901Z,90.20
2022-08-04T19:01:14.388Z,90.20
2022-08-04T19:03:44.253Z,90.10
2022-08-04T19:06:14.390Z,90.00
2022-08-04T19:08:45.011Z,90.10
2022-08-04T19:11:38.394Z,90.20
2022-08-04T19:14:04.787Z,90.20
2022-08-04T19:16:33.299Z,90.20
2022-08-04T19:19:02.317Z,90.10
2022-08-04T19:21:59.565Z,90.00
2022-08-04T19:24:32.030Z,90.00
2022-08-04T19:27:07.586Z,90.30
2022-08-04T19:29:41.447Z,90.00
2022-08-04T19:34:59.262Z,90.10
2022-08-04T19:37:57.435Z,90.20
2022-08-04T19:40:15.242Z,90.30
2022-08-04T19:42:42.795Z,90.50
2022-08-04T19:48:11.514Z,90.70
2022-08-04T19:50:45.440Z,90.60
2022-08-04T19:55:49.834Z,90.70
2022-08-04T19:58:21.581Z,91.00
2022-08-04T20:00:53.602Z,91.00
2022-08-04T20:03:22.861Z,91.10
2022-08-04T20:06:10.089Z,91.20
2022-08-04T20:08:37.417Z,91.20
2022-08-04T20:11:15.915Z,91.50
2022-08-04T20:13:43.337Z,91.40
2022-08-04T20:16:28.532Z,91.50
2022-08-04T20:19:02.830Z,91.40
2022-08-04T20:21:53.445Z,91.50
2022-08-04T20:24:37.684Z,91.60
2022-08-04T20:29:58.017Z,91.90
2022-08-04T20:32:27.108Z,91.90
2022-08-04T20:34:55.590Z,92.00
2022-08-04T20:37:24.761Z,92.40
2022-08-04T20:40:00.867Z,92.40
2022-08-04T20:42:34.227Z,92.20
2022-08-04T20:45:02.047Z,92.30
2022-08-04T20:47:35.572Z,92.50
2022-08-04T20:50:05.860Z,92.30
2022-08-04T20:52:37.655Z,92.60
2022-08-04T20:55:06.154Z,92.30
2022-08-04T20:57:50.040Z,92.70
2022-08-04T21:00:26.433Z,92.60
2022-08-04T21:03:00.491Z,92.70
2022-08-04T21:05:28.575Z,93.00
2022-08-04T21:07:57.193Z,92.90
2022-08-04T21:10:27.867Z,92.80
2022-08-04T21:12:55.508Z,92.80
2022-08-04T21:15:58.567Z,92.60
2022-08-04T21:18:14.716Z,92.90
2022-08-04T21:20:44.172Z,92.90
2022-08-04T21:23:15.209Z,93.40
2022-08-04T21:25:43.648Z,92.80
2022-08-04T21:28:12.348Z,93.40
2022-08-04T21:30:54.091Z,93.30
2022-08-04T21:33:24.180Z,93.30
2022-08-04T21:36:12.367Z,93.30
2022-08-04T21:38:39.707Z,93.20
2022-08-04T21:41:09.382Z,93.50
2022-08-04T21:43:43.093Z,93.30
2022-08-04T21:46:11.482Z,93.20
2022-08-04T21:48:42.420Z,93.40
2022-08-04T21:51:21.823Z,93.20
2022-08-04T21:54:03.161Z,93.20
2022-08-04T21:56:30.641Z,93.40
2022-08-04T21:58:59.246Z,93.30
2022-08-04T22:01:50.248Z,93.20
2022-08-04T22:04:14.535Z,93.30
2022-08-04T22:06:42.181Z,93.70
2022-08-04T22:09:15.082Z,93.40
2022-08-04T22:11:48.965Z,93.60
2022-08-04T22:14:17.223Z,93.50
2022-08-04T22:16:45.331Z,93.50
2022-08-04T22:19:13.604Z,93.50
2022-08-04T22:21:46.529Z,93.60
2022-08-04T22:24:14.528Z,93.60
2022-08-04T22:26:42.209Z,93.80
2022-08-04T22:29:14.208Z,93.80
2022-08-04T22:31:55.800Z,93.80
2022-08-04T22:34:25.036Z,93.90
2022-08-04T22:36:53.588Z,93.90
2022-08-04T22:39:23.663Z,93.90
2022-08-04T22:42:04.019Z,94.10
2022-08-04T22:44:33.328Z,93.90
2022-08-04T22:47:01.358Z,93.90
2022-08-04T22:49:31.879Z,94.00
2022-08-04T22:52:02.854Z,93.80
2022-08-04T22:54:37.345Z,93.80
2022-08-04T22:57:04.750Z,94.10
2022-08-04T22:59:31.832Z,93.90
